createdAt,value
2019-03-20T00:02:28.422Z,2.80
2019-03-20T00:04:57.646Z,2.80
2019-03-20T00:07:26.921Z,2.80
2019-03-20T00:09:56.129Z,2.80
2019-03-20T00:12:25.349Z,2.70
2019-03-20T00:14:54.599Z,2.70
2019-03-20T00:17:23.816Z,2.70
2019-03-20T00:19:53.137Z,2.70
2019-03-20T00:22:22.412Z,2.70
2019-03-20T00:24:51.620Z,2.70
2019-03-20T00:27:20.824Z,2.70
2019-03-20T00:29:50.078Z,2.70
2019-03-20T00:32:19.305Z,2.70
2019-03-20T00:34:48.545Z,2.70
2019-03-20T00:37:17.764Z,2.70
2019-03-20T00:39:47.094Z,2.70
2019-03-20T00:42:16.368Z,2.70
2019-03-20T00:44:45.660Z,2.70
2019-03-20T00:47:14.917Z,2.60
2019-03-20T00:49:44.200Z,2.60
2019-03-20T00:52:13.429Z,2.60
2019-03-20T00:54:43.033Z,2.60
2019-03-20T00:57:12.241Z,2.60
2019-03-20T00:59:41.450Z,2.60
2019-03-20T01:02:10.745Z,2.60
2019-03-20T01:04:39.983Z,2.60
2019-03-20T01:07:10.191Z,2.60
2019-03-20T01:09:39.729Z,2.60
2019-03-20T01:12:09.001Z,2.60
2019-03-20T01:14:38.216Z,2.60
2019-03-20T01:17:07.516Z,2.60
2019-03-20T01:19:36.787Z,2.60
2019-03-20T01:22:05.988Z,2.60
2019-03-20T01:24:35.269Z,2.60
2019-03-20T01:27:04.497Z,2.50
2019-03-20T01:29:34.091Z,2.50
2019-03-20T01:32:03.305Z,2.50
2019-03-20T01:34:32.512Z,2.50
2019-03-20T01:37:01.738Z,2.50
2019-03-20T01:39:31.025Z,2.50
2019-03-20T01:42:00.376Z,2.50
2019-03-20T01:44:29.576Z,2.50
2019-03-20T01:46:58.813Z,2.50
2019-03-20T01:49:28.055Z,2.50
2019-03-20T01:51:57.240Z,2.50
2019-03-20T01:54:26.484Z,2.50
2019-03-20T01:56:55.716Z,2.50
2019-03-20T01:59:24.948Z,2.50
2019-03-20T02:01:54.193Z,2.60
2019-03-20T02:04:23.380Z,2.60
2019-03-20T02:06:52.597Z,2.70
2019-03-20T02:09:21.849Z,2.70
2019-03-20T02:11:51.024Z,2.70
2019-03-20T02:14:20.242Z,2.70
2019-03-20T02:16:49.447Z,2.80
2019-03-20T02:19:18.684Z,2.80
2019-03-20T02:21:47.917Z,2.90
2019-03-20T02:24:17.144Z,2.90
2019-03-20T02:26:46.351Z,3.00
2019-03-20T02:29:15.659Z,3.00
2019-03-20T02:31:44.880Z,2.90
2019-03-20T02:34:14.070Z,2.90
2019-03-20T02:36:43.432Z,2.90
2019-03-20T02:39:12.647Z,2.90
2019-03-20T02:41:41.860Z,2.90
2019-03-20T02:44:11.101Z,2.80
2019-03-20T02:46:40.364Z,2.80
2019-03-20T02:49:09.569Z,2.80
2019-03-20T02:51:38.869Z,2.80
2019-03-20T02:54:08.095Z,2.70
2019-03-20T02:56:37.285Z,2.70
2019-03-20T02:59:06.589Z,2.70
2019-03-20T03:01:35.813Z,2.70
2019-03-20T03:04:05.556Z,2.70
2019-03-20T03:06:34.844Z,2.70
2019-03-20T03:09:06.312Z,2.70
2019-03-20T03:11:35.515Z,2.70
2019-03-20T03:14:04.740Z,2.70
2019-03-20T03:16:33.937Z,2.70
2019-03-20T03:19:03.154Z,2.70
2019-03-20T03:21:32.346Z,2.80
2019-03-20T03:24:01.656Z,2.80
2019-03-20T03:26:30.881Z,2.90
2019-03-20T03:29:00.157Z,3.00
2019-03-20T03:31:29.391Z,3.10
2019-03-20T03:33:58.610Z,3.20
2019-03-20T03:36:27.869Z,3.20
2019-03-20T03:38:57.088Z,3.30
2019-03-20T03:41:26.275Z,3.30
2019-03-20T03:43:55.498Z,3.40
2019-03-20T03:46:24.729Z,3.40
2019-03-20T03:48:53.982Z,3.40
2019-03-20T03:51:23.218Z,3.50
2019-03-20T03:53:52.462Z,3.40
2019-03-20T03:56:21.742Z,3.50
2019-03-20T03:58:50.929Z,3.50
2019-03-20T04:01:20.237Z,3.60
2019-03-20T04:03:49.465Z,3.50
2019-03-20T04:06:18.775Z,3.60
2019-03-20T04:08:47.969Z,3.50
2019-03-20T04:11:17.188Z,3.60
2019-03-20T04:13:46.457Z,3.50
2019-03-20T04:16:15.709Z,3.50
2019-03-20T04:18:44.902Z,3.50
2019-03-20T04:21:14.117Z,3.60
2019-03-20T04:23:43.316Z,3.60
2019-03-20T04:26:12.614Z,3.60
2019-03-20T04:28:41.797Z,3.50
2019-03-20T04:31:10.993Z,3.50
2019-03-20T04:33:40.232Z,3.50
2019-03-20T04:36:09.420Z,3.50
2019-03-20T04:38:38.644Z,3.50
2019-03-20T04:41:07.878Z,3.50
2019-03-20T04:43:37.102Z,3.40
2019-03-20T04:46:06.300Z,3.40
2019-03-20T04:48:35.573Z,3.30
2019-03-20T04:51:04.828Z,3.30
2019-03-20T04:53:34.037Z,3.30
2019-03-20T04:56:03.240Z,3.20
2019-03-20T04:58:32.469Z,3.20
2019-03-20T05:01:02.313Z,3.20
2019-03-20T05:03:31.524Z,3.20
2019-03-20T05:06:00.810Z,3.20
2019-03-20T05:08:30.035Z,3.20
2019-03-20T05:10:59.257Z,3.20
2019-03-20T05:13:28.467Z,3.10
2019-03-20T05:15:57.771Z,3.10
2019-03-20T05:18:26.995Z,3.10
2019-03-20T05:20:56.192Z,3.10
2019-03-20T05:23:25.432Z,3.10
2019-03-20T05:25:54.765Z,3.10
2019-03-20T05:28:24.003Z,3.10
2019-03-20T05:30:53.211Z,3.10
2019-03-20T05:33:22.466Z,3.10
2019-03-20T05:35:51.749Z,3.20
2019-03-20T05:38:20.963Z,3.20
2019-03-20T05:40:50.207Z,3.20
2019-03-20T05:43:19.427Z,3.20
2019-03-20T05:45:48.647Z,3.20
2019-03-20T05:48:17.868Z,3.20
2019-03-20T05:50:47.092Z,3.20
2019-03-20T05:53:16.339Z,3.30
2019-03-20T05:55:45.666Z,3.30
2019-03-20T05:58:14.896Z,3.30
2019-03-20T06:00:44.103Z,3.30
2019-03-20T06:03:13.311Z,3.40
2019-03-20T06:05:42.624Z,3.40
2019-03-20T06:08:11.923Z,3.40
2019-03-20T06:10:41.271Z,3.50
2019-03-20T06:13:10.492Z,3.50
2019-03-20T06:15:39.707Z,3.60
2019-03-20T06:18:08.903Z,3.60
2019-03-20T06:20:38.211Z,3.70
2019-03-20T06:23:07.396Z,3.70
2019-03-20T06:25:37.699Z,3.80
2019-03-20T06:28:06.931Z,3.90
2019-03-20T06:30:36.145Z,3.90
2019-03-20T06:33:05.345Z,4.00
2019-03-20T06:35:34.579Z,4.10
2019-03-20T06:38:03.772Z,4.20
2019-03-20T06:40:32.916Z,4.20
2019-03-20T06:43:02.100Z,4.30
2019-03-20T06:45:31.340Z,4.40
2019-03-20T06:48:00.568Z,4.40
2019-03-20T06:50:29.748Z,4.50
2019-03-20T06:52:58.982Z,4.60
2019-03-20T06:55:28.160Z,4.70
2019-03-20T06:57:57.475Z,4.80
2019-03-20T07:00:58.216Z,4.90
2019-03-20T07:03:31.652Z,5.00
2019-03-20T07:06:42.151Z,5.20
2019-03-20T07:09:36.204Z,5.30
2019-03-20T07:12:05.431Z,5.60
2019-03-20T07:14:34.644Z,5.80
2019-03-20T07:17:03.874Z,6.10
2019-03-20T07:19:33.115Z,6.50
2019-03-20T07:22:02.314Z,6.80
2019-03-20T07:24:31.526Z,6.90
2019-03-20T07:27:00.805Z,6.90
2019-03-20T07:29:29.973Z,6.90
2019-03-20T07:31:59.200Z,6.90
2019-03-20T07:34:28.419Z,6.90
2019-03-20T07:36:57.650Z,6.90
2019-03-20T07:39:26.840Z,6.90
2019-03-20T07:41:56.089Z,6.90
2019-03-20T07:44:25.313Z,6.90
2019-03-20T07:46:54.608Z,6.90
2019-03-20T07:49:23.811Z,6.90
2019-03-20T07:51:53.005Z,7.00
2019-03-20T07:54:22.405Z,7.00
2019-03-20T07:56:51.603Z,7.10
2019-03-20T07:59:20.804Z,7.20
2019-03-20T08:01:50.213Z,7.30
2019-03-20T08:04:19.591Z,7.50
2019-03-20T08:06:48.868Z,7.60
2019-03-20T08:09:18.086Z,7.80
2019-03-20T08:11:47.289Z,8.00
2019-03-20T08:14:16.508Z,8.20
2019-03-20T08:16:45.715Z,8.50
2019-03-20T08:19:14.910Z,8.50
2019-03-20T08:21:44.139Z,8.50
2019-03-20T08:24:13.435Z,8.40
2019-03-20T08:26:42.600Z,8.40
2019-03-20T08:29:11.816Z,8.40
2019-03-20T08:31:41.015Z,8.40
2019-03-20T08:34:10.249Z,8.30
2019-03-20T08:36:39.492Z,8.30
2019-03-20T08:39:08.729Z,8.30
2019-03-20T08:41:37.924Z,8.30
2019-03-20T08:44:07.178Z,8.30
2019-03-20T08:46:36.409Z,8.30
2019-03-20T08:49:05.679Z,8.30
2019-03-20T08:51:34.865Z,8.30
2019-03-20T08:54:04.143Z,8.30
2019-03-20T08:56:33.387Z,8.40
2019-03-20T08:59:02.616Z,8.40
2019-03-20T09:01:31.823Z,8.50
2019-03-20T09:04:01.047Z,8.60
2019-03-20T09:06:30.247Z,8.70
2019-03-20T09:08:59.480Z,8.70
2019-03-20T09:11:28.676Z,8.70
2019-03-20T09:13:57.928Z,8.70
2019-03-20T09:16:27.374Z,8.70
2019-03-20T09:18:56.702Z,8.70
2019-03-20T09:21:25.998Z,8.70
2019-03-20T09:23:55.214Z,8.70
2019-03-20T09:26:24.419Z,8.70
2019-03-20T09:28:53.647Z,8.70
2019-03-20T09:31:22.848Z,8.70
2019-03-20T09:33:52.027Z,8.80
2019-03-20T09:36:21.319Z,8.80
2019-03-20T09:38:50.543Z,8.80
2019-03-20T09:41:19.794Z,8.80
2019-03-20T09:43:48.997Z,8.90
2019-03-20T09:46:18.224Z,9.00
2019-03-20T09:48:47.456Z,9.20
2019-03-20T09:51:16.709Z,9.40
2019-03-20T09:53:45.904Z,9.60
2019-03-20T09:56:15.163Z,9.60
2019-03-20T09:58:44.368Z,9.80
2019-03-20T10:01:13.590Z,9.80
2019-03-20T10:03:42.785Z,9.90
2019-03-20T10:06:12.028Z,9.90
2019-03-20T10:08:41.339Z,9.90
2019-03-20T10:11:10.551Z,9.90
2019-03-20T10:13:39.872Z,9.90
2019-03-20T10:16:09.104Z,10.00
2019-03-20T10:18:38.328Z,10.10
2019-03-20T10:21:07.530Z,10.20
2019-03-20T10:23:36.786Z,10.30
2019-03-20T10:26:05.980Z,10.20
2019-03-20T10:28:35.207Z,10.20
2019-03-20T10:31:04.434Z,10.20
2019-03-20T10:33:33.651Z,10.20
2019-03-20T10:36:02.847Z,10.40
2019-03-20T10:38:31.996Z,10.50
2019-03-20T10:41:01.230Z,10.60
2019-03-20T10:43:30.488Z,10.80
2019-03-20T10:45:59.704Z,10.90
2019-03-20T10:48:28.955Z,11.00
2019-03-20T10:50:58.147Z,11.10
2019-03-20T10:53:27.334Z,11.00
2019-03-20T10:55:56.558Z,11.00
2019-03-20T10:58:25.771Z,11.10
2019-03-20T11:00:55.103Z,11.10
2019-03-20T11:03:24.324Z,11.20
2019-03-20T11:05:53.572Z,11.20
2019-03-20T11:08:22.965Z,11.10
2019-03-20T11:10:52.318Z,11.10
2019-03-20T11:13:22.147Z,11.00
2019-03-20T11:15:51.341Z,11.00
2019-03-20T11:18:20.635Z,10.90
2019-03-20T11:20:49.835Z,10.80
2019-03-20T11:23:19.161Z,10.70
2019-03-20T11:25:48.482Z,10.70
2019-03-20T11:28:17.688Z,10.70
2019-03-20T11:30:46.906Z,10.70
2019-03-20T11:33:16.136Z,10.60
2019-03-20T11:35:45.422Z,10.60
2019-03-20T11:38:14.667Z,10.60
2019-03-20T11:40:43.961Z,10.60
2019-03-20T11:43:13.259Z,10.60
2019-03-20T11:45:42.453Z,10.60
2019-03-20T11:48:11.783Z,10.50
2019-03-20T11:50:41.024Z,10.50
2019-03-20T11:53:10.245Z,10.60
2019-03-20T11:55:39.505Z,10.60
2019-03-20T11:58:08.776Z,10.60
2019-03-20T12:00:37.976Z,10.60
2019-03-20T12:03:07.524Z,10.70
2019-03-20T12:05:36.948Z,10.70
2019-03-20T12:08:06.172Z,10.70
2019-03-20T12:10:35.684Z,10.70
2019-03-20T12:13:04.907Z,10.80
2019-03-20T12:15:34.144Z,10.80
2019-03-20T12:18:03.360Z,10.80
2019-03-20T12:20:32.668Z,10.80
2019-03-20T12:23:01.901Z,10.80
2019-03-20T12:25:31.164Z,10.80
2019-03-20T12:28:00.363Z,10.80
2019-03-20T12:30:30.818Z,10.80
2019-03-20T12:33:00.036Z,10.80
2019-03-20T12:35:30.076Z,10.80
2019-03-20T12:37:59.340Z,10.80
2019-03-20T12:40:29.205Z,10.80
2019-03-20T12:42:58.529Z,10.70
2019-03-20T12:45:32.196Z,10.70
2019-03-20T12:48:01.560Z,10.60
2019-03-20T12:50:31.268Z,10.50
2019-03-20T12:53:01.846Z,10.50
2019-03-20T12:55:31.556Z,10.40
2019-03-20T12:58:00.709Z,10.30
2019-03-20T13:00:30.003Z,10.20
2019-03-20T13:02:59.225Z,10.10
2019-03-20T13:05:28.456Z,10.10
2019-03-20T13:08:05.348Z,10.00
2019-03-20T13:10:28.538Z,10.00
2019-03-20T13:12:57.769Z,10.00
2019-03-20T13:15:27.113Z,10.00
2019-03-20T13:17:56.449Z,10.00
2019-03-20T13:20:25.920Z,10.10
2019-03-20T13:22:58.233Z,10.00
2019-03-20T13:25:28.307Z,10.00
2019-03-20T13:27:57.619Z,10.00
2019-03-20T13:30:29.583Z,10.00
2019-03-20T13:32:58.867Z,10.00
2019-03-20T13:35:28.071Z,10.00
2019-03-20T13:37:57.319Z,10.00
2019-03-20T13:40:26.633Z,10.10
2019-03-20T13:42:55.879Z,10.10
2019-03-20T13:45:25.087Z,10.20
2019-03-20T13:47:54.320Z,10.30
2019-03-20T13:50:23.630Z,10.40
2019-03-20T13:52:52.884Z,10.50
2019-03-20T13:55:22.098Z,10.50
2019-03-20T13:57:51.328Z,10.50
2019-03-20T14:00:21.399Z,10.60
2019-03-20T14:02:50.627Z,10.60
2019-03-20T14:05:19.939Z,10.60
2019-03-20T14:07:49.185Z,10.70
2019-03-20T14:10:24.985Z,10.60
2019-03-20T14:12:50.335Z,10.60
2019-03-20T14:15:20.201Z,10.70
2019-03-20T14:17:49.453Z,10.60
2019-03-20T14:20:44.380Z,10.60
2019-03-20T14:23:13.630Z,10.60
2019-03-20T14:25:52.428Z,10.50
2019-03-20T14:28:22.300Z,10.50
2019-03-20T14:30:51.460Z,10.50
2019-03-20T14:33:20.711Z,10.50
2019-03-20T14:35:49.932Z,10.50
2019-03-20T14:38:19.185Z,10.50
2019-03-20T14:40:48.408Z,10.50
2019-03-20T14:43:17.668Z,10.50
2019-03-20T14:45:46.974Z,10.50
2019-03-20T14:48:16.256Z,10.50
2019-03-20T14:50:45.453Z,10.50
2019-03-20T14:53:14.780Z,10.50
2019-03-20T14:55:43.985Z,10.50
2019-03-20T14:58:13.210Z,10.50
2019-03-20T15:00:42.425Z,10.50
2019-03-20T15:03:11.626Z,10.50
2019-03-20T15:05:40.876Z,10.60
2019-03-20T15:08:10.080Z,10.60
2019-03-20T15:10:45.966Z,10.50
2019-03-20T15:13:10.318Z,10.50
2019-03-20T15:15:45.746Z,10.50
2019-03-20T15:18:15.052Z,10.60
2019-03-20T15:20:44.416Z,10.50
2019-03-20T15:23:13.683Z,10.50
2019-03-20T15:25:42.879Z,10.50
2019-03-20T15:28:12.116Z,10.60
2019-03-20T15:30:41.346Z,10.60
2019-03-20T15:33:10.559Z,10.60
2019-03-20T15:35:39.776Z,10.60
2019-03-20T15:38:09.005Z,10.60
2019-03-20T15:40:38.205Z,10.60
2019-03-20T15:43:07.468Z,10.60
2019-03-20T15:45:36.803Z,10.60
2019-03-20T15:48:06.038Z,10.60
2019-03-20T15:50:35.237Z,10.60
2019-03-20T15:53:04.589Z,10.60
2019-03-20T15:55:33.783Z,10.60
2019-03-20T15:58:03.206Z,10.60
2019-03-20T16:00:32.511Z,10.60
2019-03-20T16:03:07.644Z,10.60
2019-03-20T16:05:38.322Z,10.60
2019-03-20T16:08:07.539Z,10.70
2019-03-20T16:10:36.957Z,10.70
2019-03-20T16:13:06.264Z,10.70
2019-03-20T16:15:35.492Z,10.70
2019-03-20T16:18:04.712Z,10.70
2019-03-20T16:20:34.090Z,10.70
2019-03-20T16:23:03.344Z,10.70
2019-03-20T16:25:32.578Z,10.70
2019-03-20T16:28:01.824Z,10.70
2019-03-20T16:30:31.061Z,10.70
2019-03-20T16:33:00.259Z,10.70
2019-03-20T16:35:29.496Z,10.70
2019-03-20T16:37:58.724Z,10.70
2019-03-20T16:40:27.970Z,10.70
2019-03-20T16:42:57.196Z,10.70
2019-03-20T16:45:30.084Z,10.70
2019-03-20T16:48:00.757Z,10.70
2019-03-20T16:50:30.723Z,10.70
2019-03-20T16:53:00.478Z,10.70
2019-03-20T16:55:30.126Z,10.70
2019-03-20T16:57:59.618Z,10.70
2019-03-20T17:00:29.579Z,10.70
2019-03-20T17:02:59.068Z,10.70
2019-03-20T17:05:28.736Z,10.60
2019-03-20T17:07:58.252Z,10.60
2019-03-20T17:10:29.689Z,10.60
2019-03-20T17:12:59.000Z,10.60
2019-03-20T17:15:28.927Z,10.60
2019-03-20T17:17:58.138Z,10.50
2019-03-20T17:20:27.402Z,10.50
2019-03-20T17:22:56.603Z,10.50
2019-03-20T17:25:25.831Z,10.40
2019-03-20T17:27:55.109Z,10.40
2019-03-20T17:30:29.932Z,10.30
2019-03-20T17:32:59.252Z,10.30
2019-03-20T17:35:28.446Z,10.20
2019-03-20T17:37:57.689Z,10.20
2019-03-20T17:40:27.095Z,10.10
2019-03-20T17:42:56.424Z,10.10
2019-03-20T17:45:25.896Z,10.00
2019-03-20T17:47:55.432Z,10.00
2019-03-20T17:50:26.328Z,10.00
2019-03-20T17:52:55.548Z,10.00
2019-03-20T17:55:24.776Z,9.90
2019-03-20T17:57:54.289Z,9.90
2019-03-20T18:00:34.693Z,9.90
2019-03-20T18:03:04.140Z,10.00
2019-03-20T18:05:33.351Z,10.00
2019-03-20T18:08:02.674Z,10.00
2019-03-20T18:10:33.238Z,10.00
2019-03-20T18:13:21.697Z,10.00
2019-03-20T18:15:50.937Z,10.00
2019-03-20T18:18:20.266Z,10.00
2019-03-20T18:20:49.496Z,10.00
2019-03-20T18:23:18.691Z,10.00
2019-03-20T18:25:50.147Z,10.00
2019-03-20T18:28:21.693Z,10.00
2019-03-20T18:30:50.658Z,10.10
2019-03-20T18:33:19.883Z,10.00
2019-03-20T18:35:49.089Z,10.00
2019-03-20T18:38:18.439Z,10.00
2019-03-20T18:40:47.693Z,10.00
2019-03-20T18:43:17.002Z,10.00
2019-03-20T18:45:46.248Z,10.00
2019-03-20T18:48:15.596Z,10.00
2019-03-20T18:50:44.788Z,10.00
2019-03-20T18:53:14.052Z,10.00
2019-03-20T18:55:43.296Z,10.00
2019-03-20T18:58:12.616Z,10.00
2019-03-20T19:00:41.828Z,10.00
2019-03-20T19:03:11.123Z,10.00
2019-03-20T19:05:44.117Z,10.00
2019-03-20T19:08:13.548Z,10.00
2019-03-20T19:10:42.957Z,10.00
2019-03-20T19:13:12.241Z,10.00
2019-03-20T19:15:41.565Z,10.00
2019-03-20T19:18:10.886Z,10.00
2019-03-20T19:20:41.270Z,10.00
2019-03-20T19:23:10.786Z,10.00
2019-03-20T19:25:40.021Z,10.00
2019-03-20T19:28:09.213Z,10.00
2019-03-20T19:30:38.484Z,10.00
2019-03-20T19:33:07.696Z,10.00
2019-03-20T19:35:36.944Z,10.00
2019-03-20T19:38:06.158Z,10.00
2019-03-20T19:40:35.555Z,10.00
2019-03-20T19:43:04.825Z,10.00
2019-03-20T19:45:34.126Z,10.00
2019-03-20T19:48:03.411Z,10.00
2019-03-20T19:50:32.589Z,10.00
2019-03-20T19:53:01.804Z,10.00
2019-03-20T19:55:31.197Z,10.00
2019-03-20T19:58:00.449Z,10.00
2019-03-20T20:00:29.648Z,10.00
2019-03-20T20:02:58.872Z,10.00
2019-03-20T20:05:28.113Z,10.00
2019-03-20T20:07:57.320Z,10.00
2019-03-20T20:10:26.547Z,10.00
2019-03-20T20:12:55.793Z,10.00
2019-03-20T20:15:25.016Z,10.00
2019-03-20T20:17:54.387Z,10.00
2019-03-20T20:20:23.660Z,10.00
2019-03-20T20:22:56.033Z,10.00
2019-03-20T20:25:25.472Z,10.00
2019-03-20T20:27:54.696Z,10.00
2019-03-20T20:30:23.966Z,10.00
2019-03-20T20:32:53.387Z,10.00
2019-03-20T20:35:22.883Z,10.00
2019-03-20T20:37:55.205Z,10.00
2019-03-20T20:40:24.672Z,10.00
2019-03-20T20:42:53.937Z,10.00
2019-03-20T20:45:23.188Z,10.00
2019-03-20T20:47:52.449Z,10.00
2019-03-20T20:50:21.772Z,10.00
2019-03-20T20:52:51.011Z,10.00
2019-03-20T20:55:20.228Z,10.00
2019-03-20T20:57:49.456Z,10.00
2019-03-20T21:00:19.924Z,10.00
2019-03-20T21:02:49.162Z,10.00
2019-03-20T21:05:18.395Z,10.00
2019-03-20T21:07:47.595Z,10.00
2019-03-20T21:10:16.981Z,10.00
2019-03-20T21:12:55.504Z,10.00
2019-03-20T21:15:20.466Z,10.00
2019-03-20T21:18:07.528Z,10.00
2019-03-20T21:20:37.301Z,10.10
2019-03-20T21:23:48.691Z,10.10
2019-03-20T21:26:19.240Z,10.10
2019-03-20T21:29:25.055Z,10.10
2019-03-20T21:32:19.547Z,10.10
2019-03-20T21:35:41.951Z,10.10
2019-03-20T21:38:11.303Z,10.10
2019-03-20T21:41:30.875Z,10.10
2019-03-20T21:44:26.879Z,10.10
2019-03-20T21:47:23.199Z,10.10
2019-03-20T21:49:52.938Z,10.10
2019-03-20T21:52:22.704Z,10.10
2019-03-20T21:55:39.129Z,10.10
2019-03-20T21:58:17.666Z,10.00
2019-03-20T22:01:37.280Z,10.00
2019-03-20T22:04:07.125Z,10.00
2019-03-20T22:07:10.729Z,10.00
2019-03-20T22:10:20.318Z,10.00
2019-03-20T22:13:19.009Z,10.10
2019-03-20T22:16:22.581Z,10.10
2019-03-20T22:19:25.277Z,10.10
2019-03-20T22:22:34.323Z,10.10
2019-03-20T22:25:32.708Z,10.00
2019-03-20T22:28:43.069Z,10.00
2019-03-20T22:31:12.861Z,9.90
2019-03-20T22:34:18.247Z,9.90
2019-03-20T22:36:48.008Z,9.90
2019-03-20T22:40:07.760Z,9.90
2019-03-20T22:43:08.302Z,9.90
2019-03-20T22:46:00.873Z,9.90
2019-03-20T22:48:48.066Z,9.90
2019-03-20T22:51:47.577Z,9.90
2019-03-20T22:54:58.372Z,9.90
2019-03-20T22:57:53.255Z,9.80
2019-03-20T23:00:24.081Z,9.80
2019-03-20T23:03:11.124Z,9.80
2019-03-20T23:05:40.901Z,9.80
2019-03-20T23:08:17.177Z,9.80
2019-03-20T23:10:48.880Z,9.80
2019-03-20T23:13:19.449Z,9.80
2019-03-20T23:15:49.629Z,9.80
2019-03-20T23:18:19.504Z,9.90
2019-03-20T23:20:49.229Z,9.90
2019-03-20T23:23:18.969Z,9.90
2019-03-20T23:25:48.713Z,9.90
2019-03-20T23:28:18.513Z,9.90
2019-03-20T23:30:48.265Z,9.90
2019-03-20T23:33:18.019Z,9.90
2019-03-20T23:35:47.772Z,9.90
2019-03-20T23:38:17.592Z,9.90
2019-03-20T23:40:47.331Z,9.90
2019-03-20T23:43:17.193Z,9.90
2019-03-20T23:45:47.073Z,9.90
2019-03-20T23:48:23.645Z,9.90
2019-03-20T23:50:56.575Z,9.90
2019-03-20T23:53:26.326Z,9.90
2019-03-20T23:55:56.092Z,9.90
2019-03-20T23:58:25.928Z,9.90
